Time;durP1;ratioP1;P1;durP2;ratioP2;P2;SDS_P1;SDS_P2;PMS_P1;PMS_P2;Temp;Humidity;BMP_temperature;BMP_pressure;BME280_temperature;BME280_humidity;BME280_pressure;Samples;Min_cycle;Max_cycle;Signal;HPM_P1;HPM_P2
2023/06/12 00:00:47;;;;;;;5.03;3.63;;;;;;;24.89;18.44;101111.59;5077692;28;20044;-86
2023/06/12 00:03:15;;;;;;;4.68;3.65;;;;;;;24.84;18.71;101106.66;5067069;28;20460;-86
2023/06/12 00:05:44;;;;;;;5.45;3.35;;;;;;;24.83;18.69;101106.88;5080020;28;20072;-86
2023/06/12 00:08:17;;;;;;;5.43;3.80;;;;;;;24.82;18.57;101105.16;5084589;28;20070;-86
2023/06/12 00:10:46;;;;;;;5.10;3.40;;;;;;;24.80;18.90;101098.94;5081241;28;20483;-86
2023/06/12 00:13:15;;;;;;;5.05;3.78;;;;;;;24.76;18.83;101103.25;5072604;28;20048;-86
2023/06/12 00:15:43;;;;;;;4.78;3.70;;;;;;;24.73;18.68;101098.13;5072325;28;20141;-86
2023/06/12 00:18:12;;;;;;;5.18;3.92;;;;;;;24.71;19.03;101098.31;5083113;28;20038;-82
2023/06/12 00:20:40;;;;;;;4.35;3.50;;;;;;;24.68;18.82;101093.16;5067629;28;20507;-83
2023/06/12 00:23:10;;;;;;;4.68;3.63;;;;;;;24.67;19.00;101099.84;5063619;28;20077;-83
2023/06/12 00:25:40;;;;;;;4.93;3.75;;;;;;;24.64;18.94;101097.50;5070173;28;20056;-82
2023/06/12 00:28:07;;;;;;;4.20;3.45;;;;;;;24.60;19.00;101092.56;5077455;28;20075;-81
2023/06/12 00:30:35;;;;;;;5.35;3.95;;;;;;;24.58;18.93;101097.50;5085597;28;20066;-83
2023/06/12 00:33:03;;;;;;;4.78;3.40;;;;;;;24.56;19.08;101103.34;5071071;28;20040;-83
2023/06/12 00:35:31;;;;;;;4.93;3.55;;;;;;;24.53;19.16;101095.38;5104540;28;20028;-84
2023/06/12 00:38:00;;;;;;;4.50;3.53;;;;;;;24.50;19.21;101098.59;5086364;28;20049;-83
2023/06/12 00:40:28;;;;;;;4.95;3.80;;;;;;;24.48;19.08;101093.22;5098630;28;20055;-82
2023/06/12 00:42:58;;;;;;;4.72;3.60;;;;;;;24.49;19.20;101099.69;5089529;28;20042;-82
2023/06/12 00:45:26;;;;;;;5.55;3.83;;;;;;;24.45;18.97;101098.41;5077872;28;20083;-83
2023/06/12 00:47:57;;;;;;;4.53;3.65;;;;;;;24.43;19.14;101098.63;5082006;28;20049;-82
2023/06/12 00:50:27;;;;;;;4.82;3.53;;;;;;;24.40;19.30;101092.63;5082503;28;20535;-82
2023/06/12 00:52:59;;;;;;;4.53;3.38;;;;;;;24.38;19.27;101090.06;5068747;28;20082;-82
2023/06/12 00:55:30;;;;;;;4.75;3.45;;;;;;;24.34;19.45;101090.66;5079081;28;20039;-82
2023/06/12 00:58:01;;;;;;;5.05;3.72;;;;;;;24.35;19.46;101097.97;5065407;28;20129;-83
2023/06/12 01:00:29;;;;;;;4.55;3.55;;;;;;;24.31;19.78;101091.13;5070899;28;20309;-82
2023/06/12 01:03:04;;;;;;;5.28;3.80;;;;;;;24.30;19.57;101089.41;5065040;28;20083;-83
2023/06/12 01:05:36;;;;;;;4.93;3.53;;;;;;;24.27;19.83;101089.84;5078831;28;20089;-82
2023/06/12 01:08:21;;;;;;;4.57;3.60;;;;;;;24.25;20.08;101095.63;5065931;28;20136;-83
2023/06/12 01:10:58;;;;;;;4.93;3.88;;;;;;;24.21;19.90;101087.91;5071318;28;20078;-82
2023/06/12 01:13:28;;;;;;;5.30;4.10;;;;;;;24.18;19.96;101085.56;5079614;28;20159;-82
2023/06/12 01:15:57;;;;;;;4.78;3.60;;;;;;;24.13;19.86;101087.06;5079281;28;20063;-83
2023/06/12 01:18:25;;;;;;;4.78;3.45;;;;;;;24.10;20.21;101089.44;5067784;28;20479;-83
2023/06/12 01:20:58;;;;;;;5.03;3.63;;;;;;;24.08;20.12;101086.84;5067683;28;20121;-84
2023/06/12 01:24:01;;;;;;;4.85;3.97;;;;;;;24.00;20.18;101087.09;5068109;28;20526;-83
2023/06/12 01:26:46;;;;;;;5.15;3.85;;;;;;;23.99;20.46;101088.16;5082289;28;20071;-84
2023/06/12 01:29:41;;;;;;;4.82;3.80;;;;;;;23.91;20.94;101085.59;5064701;28;20048;-83
2023/06/12 01:32:14;;;;;;;5.18;3.80;;;;;;;23.90;20.91;101088.63;5084759;28;20115;-83
2023/06/12 01:34:50;;;;;;;5.60;3.67;;;;;;;23.86;20.71;101088.19;5082673;28;20040;-83
2023/06/12 01:37:31;;;;;;;5.45;3.83;;;;;;;23.81;20.93;101082.41;5086378;28;20090;-83
2023/06/12 01:40:02;;;;;;;4.97;4.28;;;;;;;23.77;20.73;101089.47;5084989;28;20473;-83
2023/06/12 01:42:31;;;;;;;5.82;4.35;;;;;;;23.74;21.04;101084.31;5075964;28;20044;-83
2023/06/12 01:44:59;;;;;;;6.40;4.80;;;;;;;23.68;20.97;101086.00;5074709;28;20036;-82
2023/06/12 01:47:28;;;;;;;5.03;4.07;;;;;;;23.67;21.08;101089.00;5094354;28;20062;-82
2023/06/12 01:49:57;;;;;;;5.63;3.83;;;;;;;23.62;20.95;101086.03;5097845;28;20080;-82
2023/06/12 01:52:26;;;;;;;5.30;4.13;;;;;;;23.58;21.03;101085.56;5090077;28;20474;-83
2023/06/12 01:54:57;;;;;;;4.57;3.88;;;;;;;23.54;21.43;101081.50;5088885;28;20048;-83
2023/06/12 01:57:27;;;;;;;5.15;3.92;;;;;;;23.51;21.44;101081.06;5066058;28;20069;-83
2023/06/12 01:59:56;;;;;;;4.82;3.80;;;;;;;23.48;21.30;101085.16;5064109;28;20040;-83
2023/06/12 02:02:24;;;;;;;5.80;4.10;;;;;;;23.45;21.30;101082.78;5068652;28;20055;-83
2023/06/12 02:04:54;;;;;;;4.07;3.60;;;;;;;23.45;21.24;101085.59;5077593;28;20070;-82
2023/06/12 02:07:22;;;;;;;5.78;4.00;;;;;;;23.40;21.46;101088.16;5077715;28;20116;-83
2023/06/12 02:09:50;;;;;;;5.30;4.07;;;;;;;23.36;21.53;101081.28;5092652;28;20501;-84
2023/06/12 02:12:20;;;;;;;6.18;3.85;;;;;;;23.33;21.71;101087.31;5090426;28;20040;-84
2023/06/12 02:14:50;;;;;;;4.90;3.90;;;;;;;23.30;21.71;101083.00;5067364;28;20438;-83
2023/06/12 02:17:19;;;;;;;4.63;3.97;;;;;;;23.27;21.47;101089.00;5077071;28;20528;-83
2023/06/12 02:19:48;;;;;;;5.30;4.00;;;;;;;23.25;21.80;101088.34;5065729;28;20044;-83
2023/06/12 02:22:17;;;;;;;4.75;3.63;;;;;;;23.23;21.91;101090.50;5081544;28;20049;-84
2023/06/12 02:24:46;;;;;;;6.45;4.40;;;;;;;23.18;22.21;101093.06;5066919;28;20408;-84
2023/06/12 02:27:14;;;;;;;5.32;4.00;;;;;;;23.15;22.05;101090.69;5079640;28;20198;-82
2023/06/12 02:29:42;;;;;;;5.28;4.18;;;;;;;23.13;22.39;101089.16;5066222;28;20129;-82
2023/06/12 02:32:12;;;;;;;5.68;4.10;;;;;;;23.09;22.29;101099.00;5067088;28;20045;-82
2023/06/12 02:34:40;;;;;;;5.03;4.03;;;;;;;23.06;22.13;101094.72;5085163;28;20463;-84
2023/06/12 02:37:09;;;;;;;4.78;4.10;;;;;;;23.03;22.50;101089.56;5079584;28;20044;-83
2023/06/12 02:39:43;;;;;;;4.90;4.00;;;;;;;23.02;22.28;101096.22;5068553;28;20047;-84
2023/06/12 02:42:12;;;;;;;5.97;3.97;;;;;;;22.96;22.48;101089.56;5089886;28;20044;-83
2023/06/12 02:44:40;;;;;;;6.10;4.25;;;;;;;22.94;22.64;101090.81;5072989;28;20074;-83
2023/06/12 02:47:08;;;;;;;5.82;4.20;;;;;;;22.92;22.15;101091.03;5070702;28;20128;-83
2023/06/12 02:49:44;;;;;;;6.07;4.03;;;;;;;22.88;22.30;101094.47;5066399;28;20047;-83
2023/06/12 02:52:20;;;;;;;5.38;4.10;;;;;;;22.83;22.44;101092.31;5076301;28;20048;-83
2023/06/12 02:54:50;;;;;;;5.60;3.97;;;;;;;22.84;22.53;101095.94;5097623;28;20116;-83
2023/06/12 02:57:18;;;;;;;5.75;3.90;;;;;;;22.79;22.52;101087.34;5091899;28;20915;-83
2023/06/12 02:59:46;;;;;;;5.95;4.40;;;;;;;22.77;22.46;101097.84;5067013;28;20156;-84
2023/06/12 03:02:23;;;;;;;4.95;4.07;;;;;;;22.72;22.29;101098.50;5077982;28;20530;-83
2023/06/12 03:04:52;;;;;;;6.35;4.25;;;;;;;22.70;22.28;101094.19;5085845;28;20036;-83
2023/06/12 03:07:23;;;;;;;6.15;4.60;;;;;;;22.68;22.08;101091.59;5065879;28;20126;-84
2023/06/12 03:09:55;;;;;;;5.25;3.97;;;;;;;22.68;22.25;101097.16;5073795;28;20058;-83
2023/06/12 03:12:22;;;;;;;6.57;3.70;;;;;;;22.62;22.61;101093.28;5072127;28;20048;-83
2023/06/12 03:14:53;;;;;;;5.38;4.05;;;;;;;22.60;22.40;101100.13;5062490;28;20058;-82
2023/06/12 03:17:21;;;;;;;6.53;4.35;;;;;;;22.59;22.21;101098.44;5082454;28;20355;-82
2023/06/12 03:19:49;;;;;;;5.25;4.18;;;;;;;22.56;22.16;101096.91;5063083;28;20140;-81
2023/06/12 03:22:17;;;;;;;5.82;4.30;;;;;;;22.53;22.43;101097.31;5064675;28;20044;-83
2023/06/12 03:24:45;;;;;;;6.25;4.15;;;;;;;22.51;22.29;101102.22;5067305;28;20131;-82
2023/06/12 03:27:18;;;;;;;5.22;4.20;;;;;;;22.51;22.54;101105.00;5063272;28;20036;-82
2023/06/12 03:29:46;;;;;;;5.35;4.07;;;;;;;22.46;22.27;101101.13;5062724;28;20384;-81
2023/06/12 03:32:14;;;;;;;6.10;4.20;;;;;;;22.45;22.45;101104.97;5069418;28;20122;-82
2023/06/12 03:34:52;;;;;;;5.60;4.30;;;;;;;22.42;22.37;101105.41;5062116;28;20041;-83
2023/06/12 03:37:20;;;;;;;4.97;4.13;;;;;;;22.40;22.44;101108.41;5083209;28;20086;-81
2023/06/12 03:39:48;;;;;;;6.97;4.50;;;;;;;22.39;22.58;101108.59;5065707;28;20041;-83
2023/06/12 03:42:18;;;;;;;7.88;4.85;;;;;;;22.37;22.22;101106.00;5070385;28;20105;-82
2023/06/12 03:44:52;;;;;;;4.47;3.83;;;;;;;22.33;22.71;101110.28;5071800;28;20036;-83
2023/06/12 03:47:21;;;;;;;6.05;4.00;;;;;;;22.30;22.51;101104.25;5086391;28;20103;-83
2023/06/12 03:49:49;;;;;;;5.75;4.20;;;;;;;22.28;22.41;101113.69;5090729;28;20035;-82
2023/06/12 03:52:17;;;;;;;5.57;4.25;;;;;;;22.25;22.77;101104.88;5077171;28;20043;-82
2023/06/12 03:54:50;;;;;;;5.35;4.43;;;;;;;22.20;22.51;101102.69;5067063;28;20047;-85
2023/06/12 03:57:20;;;;;;;6.32;4.22;;;;;;;22.23;22.48;101105.06;5075097;28;20388;-85
2023/06/12 03:59:48;;;;;;;7.15;4.13;;;;;;;22.16;22.67;101100.53;5084767;28;20047;-84
2023/06/12 04:02:15;;;;;;;5.70;3.97;;;;;;;22.15;22.81;101098.81;5081432;28;20081;-85
2023/06/12 04:04:43;;;;;;;5.40;4.28;;;;;;;22.12;22.62;101108.44;5071705;28;20051;-85
2023/06/12 04:07:14;;;;;;;5.85;4.05;;;;;;;22.10;23.15;101107.75;5073489;28;20049;-82
2023/06/12 04:09:42;;;;;;;5.22;4.18;;;;;;;22.09;23.04;101114.44;5066414;28;20059;-83
2023/06/12 04:12:11;;;;;;;5.55;4.45;;;;;;;22.09;23.03;101108.84;5064498;28;20056;-82
2023/06/12 04:14:41;;;;;;;5.35;4.38;;;;;;;22.08;23.28;101109.91;5076936;28;20094;-82
2023/06/12 04:17:09;;;;;;;6.18;4.60;;;;;;;22.04;23.33;101105.81;5067358;28;20036;-86
2023/06/12 04:19:37;;;;;;;6.60;4.63;;;;;;;22.05;22.89;101115.03;5070664;28;20546;-86
2023/06/12 04:22:05;;;;;;;5.32;4.45;;;;;;;22.03;23.24;101108.78;5091617;28;20048;-85
2023/06/12 04:24:34;;;;;;;5.43;3.97;;;;;;;22.02;23.49;101116.28;5069039;28;20039;-86
2023/06/12 04:27:08;;;;;;;6.97;4.43;;;;;;;22.02;23.47;101107.91;5079956;28;20052;-84
2023/06/12 04:29:38;;;;;;;5.05;4.00;;;;;;;22.00;23.40;101110.06;5083911;28;20041;-85
2023/06/12 04:32:08;;;;;;;5.30;4.22;;;;;;;22.03;23.57;101100.41;5064994;28;20141;-83
2023/06/12 04:34:41;;;;;;;5.38;4.38;;;;;;;22.02;23.66;101107.91;5076673;28;20078;-83
2023/06/12 04:37:11;;;;;;;5.80;4.38;;;;;;;21.99;23.28;101101.91;5085027;28;20076;-85
2023/06/12 04:39:39;;;;;;;5.72;4.03;;;;;;;21.98;23.34;101094.63;5073584;28;20044;-85
2023/06/12 04:42:10;;;;;;;5.40;4.07;;;;;;;21.99;23.70;101096.34;5063295;28;20528;-85
2023/06/12 04:44:39;;;;;;;5.80;4.50;;;;;;;21.95;23.69;101101.44;5081112;28;20101;-86
2023/06/12 04:47:10;;;;;;;5.88;4.50;;;;;;;21.99;24.02;101104.69;5067246;28;20046;-85
2023/06/12 04:49:40;;;;;;;5.85;4.30;;;;;;;21.98;23.78;101109.41;5077909;28;20495;-86
2023/06/12 04:52:09;;;;;;;5.07;3.88;;;;;;;21.98;23.93;101105.75;5085709;28;20072;-86
2023/06/12 04:54:38;;;;;;;6.50;4.45;;;;;;;21.97;23.81;101116.03;5064334;28;20059;-86
2023/06/12 04:57:08;;;;;;;6.45;4.50;;;;;;;21.98;23.71;101111.34;5065350;28;20515;-86
2023/06/12 04:59:38;;;;;;;5.78;4.47;;;;;;;21.99;24.47;101113.06;5062740;28;20127;-86
2023/06/12 05:02:09;;;;;;;6.57;5.00;;;;;;;22.01;24.50;101116.50;5070654;28;20476;-86
2023/06/12 05:04:37;;;;;;;7.82;4.68;;;;;;;22.01;24.20;101114.59;5069140;28;20048;-87
2023/06/12 05:07:14;;;;;;;5.82;4.47;;;;;;;22.05;24.32;101112.25;5072691;28;20124;-85
2023/06/12 05:09:45;;;;;;;6.10;5.00;;;;;;;22.09;24.74;101117.22;5064424;28;20040;-86
2023/06/12 05:12:13;;;;;;;6.05;4.72;;;;;;;22.14;24.89;101117.47;5065765;28;20054;-84
2023/06/12 05:14:43;;;;;;;6.80;5.25;;;;;;;22.20;24.60;101119.41;5084856;28;20078;-82
2023/06/12 05:17:12;;;;;;;5.95;4.78;;;;;;;22.31;24.62;101123.56;5080286;28;20082;-85
2023/06/12 05:19:40;;;;;;;6.40;4.72;;;;;;;22.38;24.66;101118.03;5093760;28;20060;-84
2023/06/12 05:22:08;;;;;;;6.47;4.55;;;;;;;22.47;24.50;101111.22;5063569;28;20044;-85
2023/06/12 05:24:37;;;;;;;6.28;4.75;;;;;;;22.57;24.45;101120.97;5088222;28;20032;-85
2023/06/12 05:27:07;;;;;;;4.75;4.07;;;;;;;22.69;24.61;101123.13;5065625;28;20052;-84
2023/06/12 05:29:35;;;;;;;5.82;4.43;;;;;;;22.77;24.78;101121.03;5078367;28;20044;-84
2023/06/12 05:32:05;;;;;;;7.32;4.35;;;;;;;22.89;24.75;101127.75;5065742;28;20055;-85
2023/06/12 05:34:37;;;;;;;5.70;4.75;;;;;;;22.99;24.67;101124.56;5068695;28;20047;-81
2023/06/12 05:37:05;;;;;;;6.63;4.95;;;;;;;23.11;24.73;101124.78;5066503;28;20036;-81
2023/06/12 05:39:33;;;;;;;6.70;4.47;;;;;;;23.22;24.40;101135.41;5068820;28;20048;-81
2023/06/12 05:42:01;;;;;;;5.70;4.63;;;;;;;23.33;24.34;101137.56;5065393;28;20768;-81
2023/06/12 05:44:31;;;;;;;5.15;4.10;;;;;;;23.45;24.27;101126.63;5068762;28;20040;-81
2023/06/12 05:47:00;;;;;;;6.38;4.88;;;;;;;23.56;24.38;101128.78;5087024;28;20052;-82
2023/06/12 05:49:29;;;;;;;5.93;4.47;;;;;;;23.66;24.37;101132.03;5063277;28;20040;-83
2023/06/12 05:51:58;;;;;;;6.15;4.60;;;;;;;23.80;24.54;101135.72;5063703;28;20052;-83
2023/06/12 05:54:26;;;;;;;6.00;4.38;;;;;;;23.89;24.24;101131.63;5065370;28;20443;-82
2023/06/12 05:56:58;;;;;;;7.45;4.68;;;;;;;23.99;24.25;101132.06;5066010;28;20589;-78
2023/06/12 05:59:27;;;;;;;7.68;4.40;;;;;;;24.07;24.18;101132.66;5071229;28;20036;-81
2023/06/12 06:01:56;;;;;;;5.20;4.30;;;;;;;24.17;24.52;101134.16;5085532;28;20581;-79
2023/06/12 06:04:24;;;;;;;6.28;4.22;;;;;;;24.24;24.37;101141.47;5067461;28;20385;-79
2023/06/12 06:06:53;;;;;;;6.30;4.63;;;;;;;24.30;23.91;101140.63;5065560;28;20071;-78
2023/06/12 06:09:23;;;;;;;6.07;4.40;;;;;;;24.37;23.88;101137.81;5058621;28;20057;-79
2023/06/12 06:11:52;;;;;;;6.40;4.18;;;;;;;24.40;23.96;101143.81;5079419;28;20040;-78
2023/06/12 06:14:20;;;;;;;6.00;4.47;;;;;;;24.43;24.04;101146.19;5077565;28;20044;-79
2023/06/12 06:16:48;;;;;;;6.03;4.35;;;;;;;24.45;23.91;101144.06;5068157;28;20051;-78
2023/06/12 06:19:29;;;;;;;6.00;4.70;;;;;;;24.47;23.92;101144.69;5085847;22;20216;-81
2023/06/12 06:21:58;;;;;;;5.90;4.60;;;;;;;24.51;24.02;101145.09;5057816;28;20553;-80
2023/06/12 06:24:28;;;;;;;6.22;4.10;;;;;;;24.55;23.98;101140.81;5074227;28;20238;-79
2023/06/12 06:26:57;;;;;;;4.82;4.18;;;;;;;24.55;23.96;101143.59;5069287;28;20183;-79
2023/06/12 06:29:25;;;;;;;6.43;4.03;;;;;;;24.57;24.23;101140.59;5077320;28;20075;-79
2023/06/12 06:31:53;;;;;;;5.60;4.35;;;;;;;24.60;23.75;101146.59;5092198;28;20108;-79
2023/06/12 06:34:21;;;;;;;5.22;4.45;;;;;;;24.63;24.22;101143.34;5081443;28;20044;-79
2023/06/12 06:36:49;;;;;;;5.53;4.43;;;;;;;24.65;23.71;101148.75;5097292;27;20062;-80
2023/06/12 06:39:17;;;;;;;4.97;4.38;;;;;;;24.68;23.66;101145.47;5079500;28;20050;-80
2023/06/12 06:41:47;;;;;;;6.55;4.55;;;;;;;24.71;23.55;101151.50;5096522;28;20132;-79
2023/06/12 06:44:15;;;;;;;5.07;4.20;;;;;;;24.71;23.50;101145.91;5099692;28;20550;-80
2023/06/12 06:46:47;;;;;;;6.00;4.35;;;;;;;24.71;23.47;101145.03;5089893;28;20391;-80
2023/06/12 06:49:15;;;;;;;6.53;4.18;;;;;;;24.74;23.30;101147.38;5102180;28;20123;-80
2023/06/12 06:51:43;;;;;;;5.70;4.20;;;;;;;24.74;23.01;101156.66;5081214;28;20081;-81
2023/06/12 06:54:11;;;;;;;5.13;4.63;;;;;;;24.77;23.30;101153.41;5100124;28;20032;-80
2023/06/12 06:56:40;;;;;;;8.20;4.35;;;;;;;24.80;22.89;101154.91;5079965;28;20061;-81
2023/06/12 06:59:09;;;;;;;5.18;4.30;;;;;;;24.83;22.78;101155.31;5096509;27;20042;-80
2023/06/12 07:01:39;;;;;;;6.22;4.32;;;;;;;24.83;22.96;101152.53;5096602;28;20051;-80
2023/06/12 07:04:07;;;;;;;6.22;4.72;;;;;;;24.86;22.81;101149.28;5095649;28;20087;-79
2023/06/12 07:06:38;;;;;;;4.97;4.40;;;;;;;24.88;22.72;101143.47;5085017;28;20086;-79
2023/06/12 07:09:06;;;;;;;5.10;4.40;;;;;;;24.93;22.38;101156.78;5089511;28;20055;-78
2023/06/12 07:11:36;;;;;;;5.82;4.28;;;;;;;24.97;22.99;101146.91;5076379;28;20490;-80
2023/06/12 07:14:05;;;;;;;5.60;4.10;;;;;;;25.01;22.59;101139.78;5077816;28;20044;-80
2023/06/12 07:16:34;;;;;;;5.85;4.30;;;;;;;25.09;22.66;101136.72;5080805;28;20044;-79
2023/06/12 07:19:02;;;;;;;5.55;4.20;;;;;;;25.13;22.64;101144.47;5097638;28;20032;-79
2023/06/12 07:21:30;;;;;;;4.68;4.18;;;;;;;25.19;22.70;101143.56;5082410;28;20090;-80
2023/06/12 07:23:59;;;;;;;4.88;4.00;;;;;;;25.30;22.52;101143.94;5096536;28;20079;-80
2023/06/12 07:26:27;;;;;;;5.43;4.70;;;;;;;25.33;22.29;101138.72;5086520;28;20568;-80
2023/06/12 07:29:03;;;;;;;6.00;4.50;;;;;;;25.39;22.21;101149.03;5080086;28;20518;-80
2023/06/12 07:31:31;;;;;;;5.82;4.40;;;;;;;25.45;22.27;101136.94;5081912;28;20048;-81
2023/06/12 07:34:02;;;;;;;5.38;4.30;;;;;;;25.53;22.18;101131.09;5084930;28;20352;-80
2023/06/12 07:36:35;;;;;;;5.70;4.20;;;;;;;25.55;22.14;101134.53;5084713;28;20059;-81
2023/06/12 07:39:04;;;;;;;6.35;4.50;;;;;;;25.62;21.71;101128.88;5103571;28;20187;-80
2023/06/12 07:41:32;;;;;;;5.93;4.50;;;;;;;25.67;22.03;101130.97;5102489;28;20036;-80
2023/06/12 07:44:01;;;;;;;6.90;4.70;;;;;;;25.72;21.94;101131.16;5100168;28;20049;-80
2023/06/12 07:46:29;;;;;;;6.38;4.70;;;;;;;25.77;21.73;101135.00;5099771;28;20040;-79
2023/06/12 07:48:57;;;;;;;5.43;4.40;;;;;;;25.82;22.18;101129.53;5092856;28;20445;-80
2023/06/12 07:51:29;;;;;;;5.70;4.28;;;;;;;25.92;22.08;101126.22;5083536;28;20048;-80
2023/06/12 07:53:57;;;;;;;5.72;4.63;;;;;;;25.95;21.77;101120.16;5078436;28;20062;-80
2023/06/12 07:56:30;;;;;;;5.00;4.20;;;;;;;26.06;21.62;101116.59;5082263;28;20039;-80
2023/06/12 07:59:06;;;;;;;5.05;4.55;;;;;;;26.14;21.19;101124.75;5080801;28;20159;-79
2023/06/12 08:01:36;;;;;;;5.35;4.50;;;;;;;26.19;21.88;101115.66;5095865;28;20047;-80
2023/06/12 08:04:09;;;;;;;6.35;4.43;;;;;;;26.29;21.37;101125.25;5081710;28;20048;-80
2023/06/12 08:06:40;;;;;;;5.05;4.25;;;;;;;26.36;21.24;101117.63;5087546;28;20444;-80
2023/06/12 08:09:09;;;;;;;5.95;4.63;;;;;;;26.37;21.19;101118.47;5082168;28;20048;-80
2023/06/12 08:11:39;;;;;;;6.13;4.78;;;;;;;26.43;21.10;101109.13;5080455;28;20498;-81
2023/06/12 08:14:08;;;;;;;6.32;4.40;;;;;;;26.48;20.89;101114.88;5094364;28;20060;-80
2023/06/12 08:16:37;;;;;;;5.03;4.45;;;;;;;26.54;21.20;101111.16;5098060;28;20048;-80
2023/06/12 08:19:05;;;;;;;5.32;4.30;;;;;;;26.59;20.83;101113.25;5083917;28;20040;-80
2023/06/12 08:21:36;;;;;;;6.00;4.60;;;;;;;26.66;20.97;101116.88;5083438;28;20399;-80
2023/06/12 08:24:07;;;;;;;5.25;4.60;;;;;;;26.73;20.82;101107.25;5090590;28;20143;-80
2023/06/12 08:26:36;;;;;;;5.78;4.47;;;;;;;26.78;21.10;101109.38;5086106;28;20058;-80
2023/06/12 08:29:05;;;;;;;5.68;4.70;;;;;;;26.88;21.02;101109.66;5080246;28;20063;-82
2023/06/12 08:31:36;;;;;;;4.82;4.10;;;;;;;26.94;20.58;101103.13;5084447;28;20097;-82
2023/06/12 08:34:05;;;;;;;4.60;3.88;;;;;;;27.05;20.91;101105.09;5072516;28;20345;-80
2023/06/12 08:36:34;;;;;;;5.50;4.43;;;;;;;27.17;20.59;101107.16;5098642;28;20063;-81
2023/06/12 08:39:05;;;;;;;5.15;4.65;;;;;;;27.30;20.62;101104.13;5091447;28;20040;-80
2023/06/12 08:41:35;;;;;;;4.93;4.18;;;;;;;27.39;20.83;101100.75;5087617;28;20050;-80
2023/06/12 08:44:03;;;;;;;4.93;4.40;;;;;;;27.50;20.37;101110.31;5082847;28;20105;-77
2023/06/12 08:46:40;;;;;;;5.45;4.68;;;;;;;27.60;20.32;101106.91;5090027;28;20060;-78
2023/06/12 08:49:09;;;;;;;4.70;3.83;;;;;;;27.69;20.47;101105.50;5100955;28;20052;-79
2023/06/12 08:51:39;;;;;;;4.88;4.38;;;;;;;27.77;19.98;101102.34;5087233;28;20050;-78
2023/06/12 08:54:11;;;;;;;4.90;4.40;;;;;;;27.82;19.88;101105.25;5096518;28;20038;-78
2023/06/12 08:56:42;;;;;;;;;;;;;;;27.53;20.41;101104.22;5077091;28;20040;-79
2023/06/12 08:59:10;;;;;;;5.05;4.20;;;;;;;27.82;19.80;101110.88;5091707;28;19924;-80
2023/06/12 09:01:42;;;;;;;4.68;4.18;;;;;;;27.87;20.07;101103.41;5075197;28;20063;-79
2023/06/12 09:04:18;;;;;;;4.80;4.30;;;;;;;27.97;19.68;101107.59;5082897;28;20134;-79
2023/06/12 09:06:47;;;;;;;6.13;4.28;;;;;;;27.95;19.80;101104.16;5074708;28;20048;-80
2023/06/12 09:09:17;;;;;;;6.60;4.78;;;;;;;28.01;19.66;101103.19;5087966;28;20035;-79
2023/06/12 09:11:45;;;;;;;5.82;4.50;;;;;;;28.02;20.03;101102.09;5079966;28;20186;-78
2023/06/12 09:14:13;;;;;;;9.85;4.82;;;;;;;28.04;20.12;101094.25;5092916;28;20157;-77
2023/06/12 09:16:48;;;;;;;5.05;4.38;;;;;;;28.13;19.80;101092.78;5094831;28;20039;-81
2023/06/12 09:19:16;;;;;;;5.03;4.50;;;;;;;28.14;20.17;101094.50;5081974;28;20052;-79
2023/06/12 09:21:48;;;;;;;5.43;4.50;;;;;;;28.23;20.09;101098.69;5094902;27;20067;-78
2023/06/12 09:24:17;;;;;;;4.80;4.15;;;;;;;28.26;19.87;101102.97;5091489;28;20040;-82
2023/06/12 09:26:46;;;;;;;5.72;4.10;;;;;;;28.33;19.94;101107.38;5094715;28;20056;-78
2023/06/12 09:29:13;;;;;;;6.43;4.60;;;;;;;28.39;19.74;101097.94;5075826;28;20032;-80
2023/06/12 09:31:41;;;;;;;4.55;4.03;;;;;;;28.47;19.85;101100.38;5076074;28;20467;-80
2023/06/12 09:34:11;;;;;;;4.63;4.22;;;;;;;28.54;19.46;101100.22;5075270;28;20144;-80
2023/06/12 09:36:43;;;;;;;5.85;4.28;;;;;;;28.58;19.62;101105.13;5076356;28;20107;-78
2023/06/12 09:39:15;;;;;;;6.80;4.22;;;;;;;28.62;19.01;101103.53;5088206;28;20239;-79
2023/06/12 09:41:50;;;;;;;5.47;4.47;;;;;;;28.67;19.06;101099.97;5077068;28;20059;-83
2023/06/12 09:44:22;;;;;;;5.10;4.60;;;;;;;28.67;19.48;101096.31;5073181;28;20086;-80
2023/06/12 09:46:50;;;;;;;6.75;4.43;;;;;;;28.71;19.50;101089.91;5088160;28;20252;-80
2023/06/12 09:49:22;;;;;;;5.43;4.20;;;;;;;28.77;19.57;101100.19;5075636;28;20486;-80
2023/06/12 09:51:53;;;;;;;5.80;4.50;;;;;;;28.81;19.68;101098.59;5069617;28;20506;-81
2023/06/12 09:54:23;;;;;;;4.60;3.90;;;;;;;28.88;19.24;101106.91;5072262;28;20056;-80
2023/06/12 09:56:54;;;;;;;5.18;4.38;;;;;;;28.98;18.75;101113.63;5074005;28;20048;-81
2023/06/12 09:59:24;;;;;;;4.80;4.30;;;;;;;29.02;18.84;101096.19;5092470;28;20039;-80
2023/06/12 10:01:55;;;;;;;5.25;4.10;;;;;;;29.12;18.79;101093.59;5090044;28;20086;-81
2023/06/12 10:04:28;;;;;;;5.22;3.95;;;;;;;29.20;19.09;101102.50;5086429;28;20070;-82
2023/06/12 10:07:01;;;;;;;4.70;3.88;;;;;;;29.30;18.54;101097.09;5078533;28;20071;-80
2023/06/12 10:09:29;;;;;;;4.47;3.97;;;;;;;29.38;18.71;101098.63;5094443;28;20089;-80
2023/06/12 10:12:00;;;;;;;4.57;3.70;;;;;;;29.48;18.42;101093.19;5073564;28;20113;-80
2023/06/12 10:14:29;;;;;;;5.13;4.18;;;;;;;29.56;18.25;101089.94;5076626;28;20035;-79
2023/06/12 10:16:58;;;;;;;4.68;4.15;;;;;;;29.65;18.21;101088.41;5074618;28;20187;-80
2023/06/12 10:19:26;;;;;;;4.85;4.15;;;;;;;29.72;17.65;101091.91;5098290;28;20371;-79
2023/06/12 10:21:55;;;;;;;4.35;3.50;;;;;;;29.81;18.00;101085.88;5073180;28;20046;-80
2023/06/12 10:24:25;;;;;;;4.95;3.88;;;;;;;29.89;17.74;101088.28;5077614;28;20050;-79
2023/06/12 10:26:56;;;;;;;4.78;4.00;;;;;;;29.97;17.58;101088.69;5081091;28;20052;-81
2023/06/12 10:29:30;;;;;;;4.93;4.13;;;;;;;30.03;17.08;101086.78;5102597;28;20085;-79
2023/06/12 10:32:05;;;;;;;4.78;3.80;;;;;;;30.10;17.66;101093.09;5087101;28;20055;-78
2023/06/12 10:34:34;;;;;;;5.63;4.40;;;;;;;30.15;17.54;101087.56;5086991;28;20075;-79
2023/06/12 10:37:23;;;;;;;5.07;4.22;;;;;;;30.20;16.54;101084.81;5105307;28;20083;-81
2023/06/12 10:40:07;;;;;;;4.38;3.92;;;;;;;30.25;17.02;101081.25;5079593;28;20451;-80
2023/06/12 10:42:40;;;;;;;4.55;4.03;;;;;;;30.32;16.72;101079.94;5071812;28;20137;-80
2023/06/12 10:45:23;;;;;;;5.30;4.18;;;;;;;30.36;16.77;101071.78;5074093;28;20043;-80
2023/06/12 10:48:17;;;;;;;5.20;4.13;;;;;;;30.39;16.25;101071.28;5097672;28;20097;-79
2023/06/12 10:50:49;;;;;;;6.10;4.28;;;;;;;30.44;16.65;101069.38;5101734;28;20067;-79
2023/06/12 10:53:29;;;;;;;4.82;3.97;;;;;;;30.46;15.83;101057.81;5096634;28;20048;-81
2023/06/12 10:56:05;;;;;;;5.15;3.75;;;;;;;30.49;16.14;101060.13;5083583;28;20051;-79
2023/06/12 10:58:37;;;;;;;4.93;4.40;;;;;;;30.50;16.14;101069.44;5080754;28;20468;-79
2023/06/12 11:01:10;;;;;;;;;;;;;;;30.18;16.69;101070.09;5079519;28;20055;-79
2023/06/12 11:03:39;;;;;;;4.40;3.53;;;;;;;30.46;16.38;101064.31;5080780;28;19946;-79
2023/06/12 11:06:13;;;;;;;4.85;4.30;;;;;;;30.53;16.86;101061.28;5079461;28;20048;-81
2023/06/12 11:08:41;;;;;;;4.70;3.85;;;;;;;30.57;16.47;101058.81;5082359;28;20043;-80
2023/06/12 11:11:10;;;;;;;4.13;3.70;;;;;;;30.62;16.02;101056.03;5092489;28;20035;-79
2023/06/12 11:13:40;;;;;;;5.78;4.53;;;;;;;30.67;16.09;101056.94;5080345;28;20047;-79
2023/06/12 11:16:14;;;;;;;4.38;3.95;;;;;;;30.75;16.14;101061.31;5095168;28;20322;-80
2023/06/12 11:18:42;;;;;;;5.88;4.15;;;;;;;30.79;15.97;101054.03;5097201;28;20499;-79
2023/06/12 11:21:11;;;;;;;4.75;4.07;;;;;;;30.87;16.23;101064.84;5099501;28;20054;-80
2023/06/12 11:23:41;;;;;;;6.50;4.25;;;;;;;30.92;16.39;101062.06;5101863;28;20047;-79
2023/06/12 11:26:10;;;;;;;4.68;4.20;;;;;;;30.99;15.91;101059.06;5093537;28;20495;-80
2023/06/12 11:28:38;;;;;;;4.72;3.92;;;;;;;31.05;16.46;101064.50;5081574;28;20052;-78
2023/06/12 11:31:07;;;;;;;4.55;4.13;;;;;;;31.09;15.84;101053.50;5095104;28;20051;-78
2023/06/12 11:33:41;;;;;;;5.00;4.47;;;;;;;31.15;15.61;101058.13;5081955;28;20036;-77
2023/06/12 11:36:09;;;;;;;4.85;4.25;;;;;;;31.12;15.82;101056.66;5075371;28;20422;-79
2023/06/12 11:38:37;;;;;;;4.80;4.30;;;;;;;31.16;15.78;101060.66;5083889;28;20051;-79
2023/06/12 11:41:11;;;;;;;4.93;4.30;;;;;;;31.18;16.16;101054.72;5096487;28;20116;-80